createdAt,value
2017-09-27T00:00:51.362Z,35.70
2017-09-27T00:03:18.855Z,29.40
2017-09-27T00:05:46.340Z,31.47
2017-09-27T00:08:14.717Z,32.80
2017-09-27T00:10:42.293Z,28.53
2017-09-27T00:13:09.767Z,28.60
2017-09-27T00:15:37.263Z,31.10
2017-09-27T00:18:04.835Z,33.70
2017-09-27T00:20:32.370Z,30.70
2017-09-27T00:23:00.605Z,27.90
2017-09-27T00:25:28.208Z,30.43
2017-09-27T00:27:55.694Z,28.90
2017-09-27T00:30:23.156Z,34.27
2017-09-27T00:32:50.662Z,32.20
2017-09-27T00:35:18.145Z,31.50
2017-09-27T00:37:45.749Z,34.37
2017-09-27T00:40:13.224Z,34.50
2017-09-27T00:42:40.708Z,32.53
2017-09-27T00:45:08.214Z,32.70
2017-09-27T00:47:36.468Z,32.63
2017-09-27T00:50:03.964Z,30.03
2017-09-27T00:52:31.444Z,28.50
2017-09-27T00:54:59.098Z,40.93
2017-09-27T00:57:26.577Z,34.27
2017-09-27T00:59:54.059Z,31.00
2017-09-27T01:02:21.549Z,35.17
2017-09-27T01:04:49.051Z,35.53
2017-09-27T01:07:16.531Z,31.30
2017-09-27T01:09:44.012Z,34.30
2017-09-27T01:12:11.605Z,35.00
2017-09-27T01:14:39.076Z,33.87
2017-09-27T01:17:06.562Z,36.17
2017-09-27T01:19:34.045Z,34.40
2017-09-27T01:22:01.538Z,33.93
2017-09-27T01:24:29.137Z,34.20
2017-09-27T01:26:56.612Z,36.23
2017-09-27T01:29:24.083Z,35.80
2017-09-27T01:31:51.673Z,33.90
2017-09-27T01:34:19.151Z,32.40
2017-09-27T01:36:46.619Z,40.20
2017-09-27T01:39:14.095Z,34.00
2017-09-27T01:41:41.564Z,36.33
2017-09-27T01:44:09.036Z,35.83
2017-09-27T01:46:37.273Z,33.27
2017-09-27T01:49:04.737Z,33.00
2017-09-27T01:51:32.240Z,33.53
2017-09-27T01:53:59.722Z,31.00
2017-09-27T01:56:27.189Z,33.20
2017-09-27T01:58:54.656Z,37.80
2017-09-27T02:01:22.247Z,34.37
2017-09-27T02:03:49.715Z,35.40
2017-09-27T02:06:17.189Z,35.17
2017-09-27T02:08:45.537Z,42.57
2017-09-27T02:11:13.008Z,40.93
2017-09-27T02:13:40.465Z,43.80
2017-09-27T02:16:07.965Z,41.87
2017-09-27T02:18:35.421Z,39.33
2017-09-27T02:21:03.698Z,36.07
2017-09-27T02:23:31.215Z,49.27
2017-09-27T02:25:58.668Z,44.50
2017-09-27T02:28:26.249Z,44.63
2017-09-27T02:30:53.734Z,43.23
2017-09-27T02:33:21.204Z,42.33
2017-09-27T02:35:48.698Z,44.90
2017-09-27T02:38:16.166Z,48.80
2017-09-27T02:40:43.636Z,45.63
2017-09-27T02:43:11.143Z,46.10
2017-09-27T02:45:38.696Z,41.70
2017-09-27T02:48:06.160Z,44.63
2017-09-27T02:50:33.640Z,51.27
2017-09-27T02:53:01.276Z,59.90
2017-09-27T02:55:28.754Z,51.77
2017-09-27T02:57:56.219Z,54.30
2017-09-27T03:00:24.624Z,53.13
2017-09-27T03:02:52.088Z,54.40
2017-09-27T03:05:19.702Z,63.53
2017-09-27T03:07:55.287Z,56.50
2017-09-27T03:10:22.781Z,56.43
2017-09-27T03:12:50.252Z,50.57
2017-09-27T03:15:17.794Z,55.87
2017-09-27T03:17:46.129Z,54.97
2017-09-27T03:20:13.608Z,53.70
2017-09-27T03:22:41.099Z,55.30
2017-09-27T03:25:08.567Z,57.57
2017-09-27T03:27:36.033Z,53.03
2017-09-27T03:30:04.258Z,57.00
2017-09-27T03:32:31.858Z,51.07
2017-09-27T03:34:59.331Z,56.03
2017-09-27T03:37:27.558Z,54.60
2017-09-27T03:39:55.044Z,54.80
2017-09-27T03:42:22.588Z,49.20
2017-09-27T03:44:50.046Z,51.50
2017-09-27T03:47:17.537Z,51.93
2017-09-27T03:49:45.787Z,51.33
2017-09-27T03:52:14.894Z,51.80
2017-09-27T03:54:42.379Z,50.67
2017-09-27T03:57:09.842Z,50.53
2017-09-27T03:59:37.383Z,53.60
2017-09-27T04:02:05.617Z,47.70
2017-09-27T04:04:33.184Z,51.40
2017-09-27T04:07:00.661Z,44.87
2017-09-27T04:09:28.282Z,51.53
2017-09-27T04:11:55.777Z,44.47
2017-09-27T04:14:23.237Z,44.37
2017-09-27T04:16:50.770Z,43.60
2017-09-27T04:19:18.252Z,48.87
2017-09-27T04:21:45.774Z,42.90
2017-09-27T04:24:13.243Z,42.33
2017-09-27T04:26:41.501Z,55.83
2017-09-27T04:29:08.963Z,46.30
2017-09-27T04:31:36.435Z,44.00
2017-09-27T04:34:04.724Z,48.77
2017-09-27T04:36:32.191Z,45.03
2017-09-27T04:39:00.467Z,42.57
2017-09-27T04:41:27.932Z,42.93
2017-09-27T04:43:55.490Z,44.53
2017-09-27T04:46:23.045Z,40.00
2017-09-27T04:48:50.514Z,44.70
2017-09-27T04:51:18.781Z,49.80
2017-09-27T04:53:46.242Z,48.40
2017-09-27T04:56:13.731Z,50.03
2017-09-27T04:58:41.215Z,48.13
2017-09-27T05:01:09.635Z,48.40
2017-09-27T05:03:37.105Z,43.90
2017-09-27T05:06:05.370Z,46.00
2017-09-27T05:08:32.971Z,53.67
2017-09-27T05:11:00.443Z,42.20
2017-09-27T05:13:27.906Z,47.60
2017-09-27T05:15:56.179Z,43.37
2017-09-27T05:18:23.789Z,42.63
2017-09-27T05:20:59.804Z,52.63
2017-09-27T05:23:27.260Z,54.57
2017-09-27T05:25:54.749Z,44.10
2017-09-27T05:28:22.301Z,41.20
2017-09-27T05:30:49.754Z,50.67
2017-09-27T05:33:17.977Z,41.50
2017-09-27T05:35:45.643Z,38.50
2017-09-27T05:38:13.846Z,40.20
2017-09-27T05:40:42.140Z,49.70
2017-09-27T05:43:09.626Z,45.57
2017-09-27T05:45:37.919Z,38.27
2017-09-27T05:48:06.908Z,38.87
2017-09-27T05:50:34.528Z,41.27
2017-09-27T05:53:02.920Z,38.50
2017-09-27T05:55:30.390Z,33.43
2017-09-27T05:57:57.844Z,34.87
2017-09-27T06:00:25.326Z,34.40
2017-09-27T06:02:52.795Z,34.53
2017-09-27T06:05:20.259Z,40.77
2017-09-27T06:07:47.748Z,41.13
2017-09-27T06:10:15.214Z,37.73
2017-09-27T06:12:43.419Z,34.80
2017-09-27T06:15:10.968Z,34.20
2017-09-27T06:17:38.444Z,46.47
2017-09-27T06:20:06.031Z,30.20
2017-09-27T06:22:33.566Z,29.97
2017-09-27T06:25:01.027Z,33.60
2017-09-27T06:27:29.376Z,45.43
2017-09-27T06:29:56.829Z,29.93
2017-09-27T06:32:24.286Z,31.10
2017-09-27T06:34:52.522Z,31.67
2017-09-27T06:37:19.990Z,49.03
2017-09-27T06:39:47.498Z,45.97
2017-09-27T06:42:14.979Z,30.73
2017-09-27T06:44:42.627Z,28.73
2017-09-27T06:47:10.072Z,33.57
2017-09-27T06:49:37.545Z,36.23
2017-09-27T06:52:05.130Z,31.73
2017-09-27T06:54:32.609Z,27.37
2017-09-27T06:57:00.105Z,31.93
2017-09-27T06:59:27.566Z,29.60
2017-09-27T07:01:55.056Z,33.80
2017-09-27T07:04:22.639Z,35.47
2017-09-27T07:06:50.156Z,27.53
2017-09-27T07:09:17.621Z,35.07
2017-09-27T07:11:45.111Z,31.00
2017-09-27T07:14:12.570Z,26.83
2017-09-27T07:16:40.181Z,30.63
2017-09-27T07:19:08.657Z,31.07
2017-09-27T07:21:37.029Z,25.60
2017-09-27T07:24:04.496Z,30.63
2017-09-27T07:26:31.962Z,19.73
2017-09-27T07:28:59.560Z,23.47
2017-09-27T07:31:27.029Z,26.83
2017-09-27T07:33:54.495Z,26.30
2017-09-27T07:36:22.084Z,25.30
2017-09-27T07:38:49.551Z,22.97
2017-09-27T07:41:17.005Z,24.23
2017-09-27T07:43:45.228Z,25.80
2017-09-27T07:46:12.675Z,22.50
2017-09-27T07:48:41.073Z,19.30
2017-09-27T07:51:08.549Z,22.03
2017-09-27T07:53:36.050Z,21.33
2017-09-27T07:56:04.397Z,24.70
2017-09-27T07:58:31.853Z,19.07
2017-09-27T08:01:00.108Z,22.07
2017-09-27T08:03:27.566Z,19.83
2017-09-27T08:05:55.799Z,25.13
2017-09-27T08:08:23.382Z,21.67
2017-09-27T08:10:50.840Z,23.83
2017-09-27T08:13:18.491Z,19.27
2017-09-27T08:15:45.973Z,23.53
2017-09-27T08:18:13.441Z,23.60
2017-09-27T08:20:40.905Z,22.70
2017-09-27T08:23:08.438Z,19.77
2017-09-27T08:25:35.917Z,23.13
2017-09-27T08:28:04.152Z,16.50
2017-09-27T08:30:32.421Z,18.50
2017-09-27T08:33:00.656Z,18.67
2017-09-27T08:35:28.122Z,18.63
2017-09-27T08:37:56.444Z,21.70
2017-09-27T08:40:23.935Z,20.27
2017-09-27T08:42:51.396Z,22.90
2017-09-27T08:45:19.644Z,20.60
2017-09-27T08:47:47.094Z,17.40
2017-09-27T08:50:14.630Z,21.67
2017-09-27T08:52:42.122Z,23.10
2017-09-27T08:55:09.582Z,19.40
2017-09-27T08:57:37.149Z,19.70
2017-09-27T09:00:04.640Z,22.30
2017-09-27T09:02:32.110Z,24.70
2017-09-27T09:04:59.578Z,22.40
2017-09-27T09:07:27.041Z,27.07
2017-09-27T09:09:54.652Z,23.07
2017-09-27T09:12:22.864Z,22.37
2017-09-27T09:14:50.327Z,23.07
2017-09-27T09:17:17.810Z,21.17
2017-09-27T09:19:45.251Z,22.30
2017-09-27T09:22:12.836Z,20.13
2017-09-27T09:24:40.303Z,22.47
2017-09-27T09:27:07.744Z,28.67
2017-09-27T09:29:35.988Z,28.90
2017-09-27T09:32:03.469Z,25.87
2017-09-27T09:34:30.919Z,19.13
2017-09-27T09:36:59.161Z,23.97
2017-09-27T09:39:26.664Z,21.80
2017-09-27T09:41:55.761Z,23.30
2017-09-27T09:44:23.347Z,22.77
2017-09-27T09:46:50.796Z,24.23
2017-09-27T09:49:18.276Z,27.00
2017-09-27T09:51:45.809Z,24.83
2017-09-27T09:54:13.305Z,29.27
2017-09-27T09:56:40.775Z,25.10
2017-09-27T09:59:08.290Z,24.93
2017-09-27T10:01:36.512Z,22.80
2017-09-27T10:04:05.777Z,21.67
2017-09-27T10:06:33.281Z,22.80
2017-09-27T10:09:00.749Z,25.20
2017-09-27T10:11:28.225Z,21.70
2017-09-27T10:13:56.447Z,23.30
2017-09-27T10:16:24.168Z,21.93
2017-09-27T10:18:52.401Z,27.43
2017-09-27T10:21:19.998Z,23.63
2017-09-27T10:23:48.234Z,26.67
2017-09-27T10:26:15.791Z,22.60
2017-09-27T10:28:43.291Z,25.03
2017-09-27T10:31:10.740Z,18.73
2017-09-27T10:33:38.200Z,22.30
2017-09-27T10:36:05.777Z,23.47
2017-09-27T10:38:33.236Z,15.00
2017-09-27T10:41:01.504Z,22.67
2017-09-27T10:43:28.992Z,21.97
2017-09-27T10:45:56.465Z,19.73
2017-09-27T10:48:24.011Z,18.20
2017-09-27T10:50:52.389Z,14.17
2017-09-27T10:53:19.876Z,13.80
2017-09-27T10:55:48.122Z,14.80
2017-09-27T10:58:15.584Z,13.83
2017-09-27T11:00:43.059Z,18.07
2017-09-27T11:03:11.285Z,14.73
2017-09-27T11:05:38.744Z,18.47
2017-09-27T11:08:06.270Z,14.60
2017-09-27T11:10:34.474Z,15.80
2017-09-27T11:13:01.962Z,15.47
2017-09-27T11:15:29.431Z,17.30
2017-09-27T11:17:56.909Z,16.63
2017-09-27T11:20:24.366Z,25.23
2017-09-27T11:22:51.873Z,15.80
2017-09-27T11:25:19.341Z,18.20
2017-09-27T11:27:46.919Z,16.87
2017-09-27T11:30:14.378Z,18.27
2017-09-27T11:32:42.617Z,17.30
2017-09-27T11:35:10.963Z,17.23
2017-09-27T11:37:38.412Z,15.10
2017-09-27T11:40:05.895Z,12.87
2017-09-27T11:42:33.379Z,14.70
2017-09-27T11:45:00.866Z,15.83
2017-09-27T11:47:28.339Z,15.60
2017-09-27T11:49:55.819Z,14.03
2017-09-27T11:52:23.371Z,16.90
2017-09-27T11:54:50.939Z,23.07
2017-09-27T11:57:19.169Z,18.90
2017-09-27T11:59:46.755Z,20.33
2017-09-27T12:02:15.116Z,18.00
2017-09-27T12:04:42.577Z,16.63
2017-09-27T12:07:10.064Z,16.40
2017-09-27T12:09:37.562Z,19.20
2017-09-27T12:12:05.016Z,20.47
2017-09-27T12:14:32.472Z,18.43
2017-09-27T12:16:59.955Z,13.57
2017-09-27T12:19:28.310Z,15.90
2017-09-27T12:21:56.563Z,16.43
2017-09-27T12:24:24.740Z,16.73
2017-09-27T12:26:52.208Z,16.10
2017-09-27T12:29:20.419Z,19.10
2017-09-27T12:31:47.890Z,17.73
2017-09-27T12:34:16.134Z,23.43
2017-09-27T12:36:44.464Z,22.00
2017-09-27T12:39:11.950Z,29.07
2017-09-27T12:41:39.413Z,25.53
2017-09-27T12:44:06.909Z,18.40
2017-09-27T12:46:34.450Z,15.63
2017-09-27T12:49:01.910Z,17.07
2017-09-27T12:51:30.141Z,16.67
2017-09-27T12:53:57.627Z,17.37
2017-09-27T12:56:25.123Z,19.97
2017-09-27T12:58:52.605Z,18.30
2017-09-27T13:01:20.070Z,22.47
2017-09-27T13:03:48.317Z,18.50
2017-09-27T13:06:16.743Z,18.87
2017-09-27T13:08:44.957Z,18.17
2017-09-27T13:11:12.534Z,13.70
2017-09-27T13:13:39.985Z,18.10
2017-09-27T13:16:07.446Z,17.77
2017-09-27T13:18:34.933Z,15.67
2017-09-27T13:21:02.406Z,17.37
2017-09-27T13:23:29.868Z,18.20
2017-09-27T13:25:57.358Z,21.80
2017-09-27T13:28:24.834Z,21.43
2017-09-27T13:30:52.303Z,23.17
2017-09-27T13:33:19.754Z,23.17
2017-09-27T13:35:48.002Z,17.13
2017-09-27T13:38:15.451Z,17.23
2017-09-27T13:40:43.886Z,20.40
2017-09-27T13:43:11.346Z,18.93
2017-09-27T13:45:38.805Z,18.63
2017-09-27T13:48:06.374Z,33.50
2017-09-27T13:50:33.832Z,16.43
2017-09-27T13:53:02.064Z,18.30
2017-09-27T13:55:29.537Z,17.70
2017-09-27T13:57:56.994Z,22.50
2017-09-27T14:00:24.622Z,15.40
2017-09-27T14:02:52.847Z,14.77
2017-09-27T14:05:20.332Z,16.43
2017-09-27T14:07:47.822Z,18.00
2017-09-27T14:10:15.294Z,16.97
2017-09-27T14:12:42.765Z,16.60
2017-09-27T14:15:10.981Z,15.47
2017-09-27T14:17:38.473Z,19.80
2017-09-27T14:20:06.074Z,19.23
2017-09-27T14:22:33.542Z,17.03
2017-09-27T14:25:01.139Z,18.53
2017-09-27T14:27:28.633Z,16.87
2017-09-27T14:29:56.081Z,19.47
2017-09-27T14:32:23.748Z,21.57
2017-09-27T14:34:51.256Z,23.00
2017-09-27T14:37:18.739Z,20.80
2017-09-27T14:39:46.437Z,18.43
2017-09-27T14:42:14.706Z,17.43
2017-09-27T14:44:42.175Z,18.40
2017-09-27T14:47:10.500Z,17.33
2017-09-27T14:49:37.980Z,18.93
2017-09-27T14:52:05.720Z,20.30
2017-09-27T14:54:33.201Z,20.47
2017-09-27T14:57:00.644Z,24.30
2017-09-27T14:59:28.239Z,21.00
2017-09-27T15:01:55.716Z,15.00
2017-09-27T15:04:23.203Z,21.67
2017-09-27T15:06:50.700Z,21.10
2017-09-27T15:09:18.158Z,20.97
2017-09-27T15:11:45.708Z,19.33
2017-09-27T15:14:13.929Z,18.63
2017-09-27T15:16:41.387Z,23.43
2017-09-27T15:19:08.885Z,16.77
2017-09-27T15:21:37.109Z,17.33
2017-09-27T15:24:04.707Z,21.83
2017-09-27T15:26:32.198Z,29.30
2017-09-27T15:28:59.653Z,22.10
2017-09-27T15:31:27.137Z,17.83
2017-09-27T15:33:54.590Z,19.63
2017-09-27T15:36:22.825Z,16.47
2017-09-27T15:38:50.290Z,19.27
2017-09-27T15:41:17.750Z,20.60
2017-09-27T15:43:45.223Z,20.07
2017-09-27T15:46:13.621Z,21.27
2017-09-27T15:48:41.116Z,20.23
2017-09-27T15:51:09.370Z,18.87
2017-09-27T15:53:36.845Z,17.80
2017-09-27T15:56:04.314Z,21.67
2017-09-27T15:58:31.908Z,19.07
2017-09-27T16:00:59.367Z,21.20
2017-09-27T16:03:26.887Z,20.50
2017-09-27T16:05:54.428Z,17.70
2017-09-27T16:08:21.892Z,16.40
2017-09-27T16:10:49.435Z,20.10
2017-09-27T16:13:16.936Z,21.57
2017-09-27T16:15:45.149Z,18.73
2017-09-27T16:18:12.608Z,20.97
2017-09-27T16:20:40.075Z,22.80
2017-09-27T16:23:07.558Z,29.13
2017-09-27T16:25:35.115Z,23.40
2017-09-27T16:28:02.591Z,23.90
2017-09-27T16:30:30.058Z,25.37
2017-09-27T16:32:57.616Z,18.43
2017-09-27T16:35:25.117Z,24.30
2017-09-27T16:37:52.587Z,22.17
2017-09-27T16:40:20.180Z,23.27
2017-09-27T16:42:47.643Z,25.40
2017-09-27T16:45:15.092Z,28.30
2017-09-27T16:47:42.583Z,31.33
2017-09-27T16:50:10.801Z,26.63
2017-09-27T16:52:38.263Z,33.90
2017-09-27T16:55:06.646Z,27.67
2017-09-27T16:57:34.250Z,29.40
2017-09-27T17:00:02.488Z,28.60
2017-09-27T17:02:29.970Z,33.67
2017-09-27T17:04:57.477Z,34.33
2017-09-27T17:07:25.066Z,40.83
2017-09-27T17:09:52.533Z,37.73
2017-09-27T17:12:20.002Z,41.37
2017-09-27T17:14:47.554Z,41.07
2017-09-27T17:17:15.004Z,43.37
2017-09-27T17:19:42.511Z,47.17
2017-09-27T17:22:10.730Z,42.47
2017-09-27T17:24:38.218Z,39.00
2017-09-27T17:27:05.726Z,45.33
2017-09-27T17:29:33.240Z,45.83
2017-09-27T17:32:00.720Z,44.30
2017-09-27T17:34:28.323Z,41.90
2017-09-27T17:36:55.796Z,50.70
2017-09-27T17:39:24.145Z,53.20
2017-09-27T17:41:51.633Z,49.80
2017-09-27T17:44:19.104Z,47.53
2017-09-27T17:46:46.735Z,41.73
2017-09-27T17:49:14.185Z,45.90
2017-09-27T17:51:41.658Z,48.03
2017-09-27T17:54:09.124Z,48.40
2017-09-27T17:56:36.582Z,53.73
2017-09-27T17:59:04.881Z,45.37
2017-09-27T18:01:34.158Z,49.97
2017-09-27T18:04:03.248Z,49.33
2017-09-27T18:09:37.054Z,49.77
2017-09-27T18:12:09.920Z,53.23
2017-09-27T18:14:43.083Z,47.13
2017-09-27T18:20:10.953Z,49.00
2017-09-27T18:22:38.559Z,57.07
2017-09-27T18:25:06.989Z,57.73
2017-09-27T18:27:34.471Z,52.97
2017-09-27T18:30:01.996Z,52.87
2017-09-27T18:32:30.269Z,48.90
2017-09-27T18:34:57.779Z,55.77
2017-09-27T18:37:26.075Z,55.67
2017-09-27T18:39:54.324Z,56.47
2017-09-27T18:42:21.812Z,68.60
2017-09-27T18:44:49.308Z,57.60
2017-09-27T18:47:16.811Z,49.37
2017-09-27T18:49:45.072Z,51.20
2017-09-27T18:52:12.573Z,61.80
2017-09-27T18:54:40.079Z,49.60
2017-09-27T18:57:07.593Z,56.57
2017-09-27T18:59:35.102Z,55.70
2017-09-27T19:02:03.365Z,53.37
2017-09-27T19:04:31.838Z,63.90
2017-09-27T19:06:59.368Z,52.57
2017-09-27T19:09:27.060Z,58.40
2017-09-27T19:11:54.539Z,49.07
2017-09-27T19:14:22.025Z,60.20
2017-09-27T19:16:49.635Z,55.33
2017-09-27T19:19:17.139Z,54.23
2017-09-27T19:21:44.634Z,53.57
2017-09-27T19:24:12.889Z,49.77
2017-09-27T19:26:40.372Z,50.93
2017-09-27T19:29:07.881Z,51.37
2017-09-27T19:31:35.371Z,63.43
2017-09-27T19:34:02.856Z,54.30
2017-09-27T19:36:30.350Z,67.60
2017-09-27T19:38:58.600Z,58.50
2017-09-27T19:41:26.170Z,57.17
2017-09-27T19:43:53.665Z,62.07
2017-09-27T19:46:21.249Z,55.00
2017-09-27T19:48:48.710Z,54.10
2017-09-27T19:51:16.204Z,54.53
2017-09-27T19:53:43.823Z,50.90
2017-09-27T19:56:11.312Z,59.50
2017-09-27T19:58:38.781Z,63.00
2017-09-27T20:01:06.309Z,57.00
2017-09-27T20:03:34.570Z,54.77
2017-09-27T20:06:02.062Z,60.40
2017-09-27T20:08:29.561Z,57.27
2017-09-27T20:10:57.865Z,57.47
2017-09-27T20:13:25.390Z,53.97
2017-09-27T20:15:52.876Z,58.30
2017-09-27T20:18:20.365Z,56.37
2017-09-27T20:20:47.874Z,50.57
2017-09-27T20:23:16.156Z,52.73
2017-09-27T20:25:43.659Z,53.60
2017-09-27T20:28:11.133Z,54.57
2017-09-27T20:30:38.679Z,52.07
2017-09-27T20:33:06.999Z,59.70
2017-09-27T20:35:34.603Z,53.37
2017-09-27T20:38:02.096Z,59.17
2017-09-27T20:40:29.560Z,61.03
2017-09-27T20:42:57.034Z,61.63
2017-09-27T20:45:24.565Z,62.03
2017-09-27T20:47:52.815Z,63.33
2017-09-27T20:50:20.273Z,58.67
2017-09-27T20:52:47.752Z,55.40
2017-09-27T20:55:15.233Z,59.83
2017-09-27T20:57:43.505Z,60.63
2017-09-27T21:00:11.020Z,56.60
2017-09-27T21:02:38.491Z,56.70
2017-09-27T21:05:07.662Z,56.57
2017-09-27T21:07:35.183Z,61.00
2017-09-27T21:10:03.498Z,59.93
2017-09-27T21:12:30.964Z,55.27
2017-09-27T21:14:59.191Z,56.70
2017-09-27T21:17:26.749Z,54.27
2017-09-27T21:19:54.984Z,54.70
2017-09-27T21:22:22.467Z,58.23
2017-09-27T21:24:49.949Z,60.73
2017-09-27T21:27:17.433Z,56.50
2017-09-27T21:29:44.910Z,57.17
2017-09-27T21:32:12.409Z,55.63
2017-09-27T21:34:40.660Z,51.50
2017-09-27T21:37:08.885Z,55.37
2017-09-27T21:39:36.372Z,56.27
2017-09-27T21:42:03.857Z,54.83
2017-09-27T21:44:31.335Z,59.90
2017-09-27T21:46:58.816Z,53.00
2017-09-27T21:49:26.405Z,58.50
2017-09-27T21:51:53.877Z,71.87
2017-09-27T21:54:22.266Z,54.50
2017-09-27T21:56:50.508Z,54.13
2017-09-27T21:59:18.108Z,59.23
2017-09-27T22:01:45.626Z,54.70
2017-09-27T22:04:13.850Z,53.97
2017-09-27T22:06:41.330Z,57.97
2017-09-27T22:09:09.558Z,55.87
2017-09-27T22:11:37.027Z,55.40
2017-09-27T22:14:04.660Z,53.10
2017-09-27T22:16:32.141Z,53.87
2017-09-27T22:18:59.728Z,52.93
2017-09-27T22:21:27.195Z,58.60
2017-09-27T22:23:54.659Z,59.83
2017-09-27T22:26:22.945Z,54.57
2017-09-27T22:28:51.170Z,59.77
2017-09-27T22:31:19.576Z,60.20
2017-09-27T22:33:47.114Z,52.40
2017-09-27T22:36:15.345Z,54.37
2017-09-27T22:38:44.586Z,56.20
2017-09-27T22:41:12.059Z,58.30
2017-09-27T22:43:40.418Z,55.27
2017-09-27T22:46:08.641Z,57.20
2017-09-27T22:48:36.108Z,57.03
2017-09-27T22:51:04.355Z,59.37
2017-09-27T22:53:31.826Z,58.30
2017-09-27T22:55:59.302Z,65.60
2017-09-27T22:58:27.699Z,54.97
2017-09-27T23:00:55.174Z,59.93
2017-09-27T23:03:22.638Z,50.03
2017-09-27T23:05:50.872Z,55.20
2017-09-27T23:08:18.346Z,57.73
2017-09-27T23:10:46.577Z,56.77
2017-09-27T23:13:14.155Z,53.40
2017-09-27T23:15:41.618Z,54.33
2017-09-27T23:18:09.080Z,53.27
2017-09-27T23:20:36.555Z,49.40
2017-09-27T23:23:04.776Z,52.03
2017-09-27T23:25:32.246Z,48.40
2017-09-27T23:28:00.478Z,47.40
2017-09-27T23:30:27.959Z,46.33
2017-09-27T23:32:55.410Z,47.40
2017-09-27T23:35:23.137Z,50.40
2017-09-27T23:37:50.610Z,51.23
2017-09-27T23:40:18.071Z,51.67
2017-09-27T23:42:45.553Z,50.03
2017-09-27T23:45:13.014Z,45.10
2017-09-27T23:47:40.473Z,47.17
2017-09-27T23:50:08.718Z,53.60
2017-09-27T23:52:36.179Z,51.20
2017-09-27T23:55:03.652Z,48.50
2017-09-27T23:57:31.885Z,43.17
2017-09-27T23:59:59.395Z,46.70
